Time;durP1;ratioP1;P1;durP2;ratioP2;P2;SDS_P1;SDS_P2;PMS_P1;PMS_P2;Temp;Humidity;BMP_temperature;BMP_pressure;BME280_temperature;BME280_humidity;BME280_pressure;Samples;Min_cycle;Max_cycle;Signal;HPM_P1;HPM_P2
2021/01/29 00:01:12;;;;;;;;;;;;;;;;;;5090278;28;2040;-74
2021/01/29 00:03:38;;;;;;;;;;;;;;;;;;5088499;28;5678;-75
2021/01/29 00:06:04;;;;;;;;;;;;;;;;;;5089477;28;5682;-75
2021/01/29 00:08:30;;;;;;;;;;;;;;;;;;5090661;28;5621;-75
2021/01/29 00:10:55;;;;;;;;;;;;;;;;;;5088667;28;5760;-75
2021/01/29 00:13:21;;;;;;;;;;;;;;;;;;5091654;28;4320;-75
2021/01/29 00:15:46;;;;;;;;;;;;;;;;;;5089147;28;3060;-75
2021/01/29 00:18:12;;;;;;;;;;;;;;;;;;5090394;28;5772;-75
2021/01/29 00:20:37;;;;;;;;;;;;;;;;;;5088457;28;6103;-75
2021/01/29 00:23:03;;;;;;;;;;;;;;;;;;5090960;28;5727;-74
2021/01/29 00:25:39;;;;;;;;;;;;;;;;;;5091590;28;4974;-75
2021/01/29 00:28:05;;;;;;;;;;;;;;;;;;5089138;28;2943;-74
2021/01/29 00:30:31;;;;;;;;;;;;;;;;;;5093970;28;5688;-74
2021/01/29 00:32:56;;;;;;;;;;;;;;;;;;5084481;28;5470;-75
2021/01/29 00:35:23;;;;;;;;;;;;;;;;;;5079868;28;5766;-75
2021/01/29 00:37:49;;;;;;;;;;;;;;;;;;5082732;28;5873;-74
2021/01/29 00:40:15;;;;;;;;;;;;;;;;;;5096626;28;1781;-74
2021/01/29 00:42:40;;;;;;;;;;;;;;;;;;5092151;28;5662;-74
2021/01/29 00:45:07;;;;;;;;;;;;;;;;;;5093730;28;5831;-74
2021/01/29 00:47:32;;;;;;;;;;;;;;;;;;5091933;28;5686;-74
2021/01/29 00:49:57;;;;;;;;;;;;;;;;;;5092064;28;5208;-74
2021/01/29 00:52:22;;;;;;;;;;;;;;;;;;5094623;28;5598;-74
2021/01/29 00:54:48;;;;;;;;;;;;;;;;;;5091615;28;2928;-74
2021/01/29 00:57:13;;;;;;;;;;;;;;;;;;5092349;28;5654;-74
2021/01/29 00:59:39;;;;;;;;;;;;;;;;;;5094186;28;5737;-75
2021/01/29 01:02:04;;;;;;;;;;;;;;;;;;5090640;28;5635;-74
2021/01/29 01:04:29;;;;;;;;;;;;;;;;;;5093058;28;4349;-75
2021/01/29 01:06:54;;;;;;;;;;;;;;;;;;5093006;28;5732;-75
2021/01/29 01:09:20;;;;;;;;;;;;;;;;;;5091714;28;2974;-74
2021/01/29 01:11:45;;;;;;;;;;;;;;;;;;5094240;28;5566;-75
2021/01/29 01:14:10;;;;;;;;;;;;;;;;;;5092557;28;5617;-75
2021/01/29 01:16:35;;;;;;;;;;;;;;;;;;5090247;28;5814;-74
2021/01/29 01:19:01;;;;;;;;;;;;;;;;;;5090081;28;2943;-75
2021/01/29 01:21:26;;;;;;;;;;;;;;;;;;5090458;28;5776;-75
2021/01/29 01:23:51;;;;;;;;;;;;;;;;;;5093457;28;5827;-75
2021/01/29 01:26:16;;;;;;;;;;;;;;;;;;5094393;28;3268;-75
2021/01/29 01:28:42;;;;;;;;;;;;;;;;;;5092726;28;5680;-74
2021/01/29 01:31:07;;;;;;;;;;;;;;;;;;5092008;28;5602;-75
2021/01/29 01:33:32;;;;;;;;;;;;;;;;;;5090818;28;5714;-74
2021/01/29 01:35:57;;;;;;;;;;;;;;;;;;5092610;28;5597;-74
2021/01/29 01:38:23;;;;;;;;;;;;;;;;;;5088344;28;2899;-75
2021/01/29 01:40:48;;;;;;;;;;;;;;;;;;5091144;28;5774;-75
2021/01/29 01:43:13;;;;;;;;;;;;;;;;;;5092253;28;2967;-75
2021/01/29 01:45:59;;;;;;;;;;;;;;;;;;5092551;28;5760;-74
2021/01/29 01:48:46;;;;;;;;;;;;;;;;;;5073228;28;5892;-74
2021/01/29 01:51:29;;;;;;;;;;;;;;;;;;5086795;28;5758;-75
2021/01/29 01:53:57;;;;;;;;;;;;;;;;;;5092302;28;5684;-74
2021/01/29 01:56:22;;;;;;;;;;;;;;;;;;5088582;28;4929;-75
2021/01/29 01:58:53;;;;;;;;;;;;;;;;;;5091513;28;5306;-74
2021/01/29 02:01:20;;;;;;;;;;;;;;;;;;5093168;28;3079;-74
2021/01/29 02:03:45;;;;;;;;;;;;;;;;;;5090085;28;6008;-75
2021/01/29 02:06:11;;;;;;;;;;;;;;;;;;5090260;28;5614;-74
2021/01/29 02:08:38;;;;;;;;;;;;;;;;;;5091077;28;5787;-75
2021/01/29 02:11:03;;;;;;;;;;;;;;;;;;5089643;28;5588;-75
2021/01/29 02:13:28;;;;;;;;;;;;;;;;;;5091988;28;5756;-75
2021/01/29 02:15:57;;;;;;;;;;;;;;;;;;5092697;28;2927;-74
2021/01/29 02:18:25;;;;;;;;;;;;;;;;;;5090129;28;5655;-74
2021/01/29 02:21:09;;;;;;;;;;;;;;;;;;5092456;28;3045;-74
2021/01/29 02:23:34;;;;;;;;;;;;;;;;;;5090819;28;3122;-75
2021/01/29 02:25:59;;;;;;;;;;;;;;;;;;5090998;28;5660;-75
2021/01/29 02:28:30;;;;;;;;;;;;;;;;;;5092772;28;5386;-75
2021/01/29 02:31:14;;;;;;;;;;;;;;;;;;5092182;28;5615;-74
2021/01/29 02:33:48;;;;;;;;;;;;;;;;;;5090152;28;5933;-74
2021/01/29 02:36:32;;;;;;;;;;;;;;;;;;5086348;28;5579;-63
2021/01/29 02:38:57;;;;;;;;;;;;;;;;;;5089835;28;5783;-64
2021/01/29 02:41:40;;;;;;;;;;;;;;;;;;5089782;28;2971;-63
2021/01/29 02:44:05;;;;;;;;;;;;;;;;;;5088477;28;5650;-63
2021/01/29 02:46:57;;;;;;;;;;;;;;;;;;5090500;28;5656;-63
2021/01/29 02:49:39;;;;;;;;;;;;;;;;;;5036707;28;5607;-64
2021/01/29 02:52:13;;;;;;;;;;;;;;;;;;5028736;28;5279;-64
2021/01/29 02:54:45;;;;;;;;;;;;;;;;;;5038553;28;4964;-64
2021/01/29 02:57:15;;;;;;;;;;;;;;;;;;5038430;28;4412;-64
2021/01/29 02:59:47;;;;;;;;;;;;;;;;;;5039276;28;2947;-64
2021/01/29 03:02:17;;;;;;;;;;;;;;;;;;5038821;28;5258;-65
2021/01/29 03:04:49;;;;;;;;;;;;;;;;;;5032758;28;5154;-63
2021/01/29 03:07:19;;;;;;;;;;;;;;;;;;5025260;28;4471;-64
2021/01/29 03:09:53;;;;;;;;;;;;;;;;;;5029964;28;5583;-64
2021/01/29 03:12:25;;;;;;;;;;;;;;;;;;5035937;28;5962;-64
2021/01/29 03:15:10;;;;;;;;;;;;;;;;;;5037460;28;1801;-64
2021/01/29 03:17:44;;;;;;;;;;;;;;;;;;5027765;28;2900;-64
2021/01/29 03:20:16;;;;;;;;;;;;;;;;;;5023644;28;5408;-65
2021/01/29 03:22:43;;;;;;;;;;;;;;;;;;5035907;28;5727;-65
2021/01/29 03:25:29;;;;;;;;;;;;;;;;;;5039506;28;5896;-65
2021/01/29 03:27:58;;;;;;;;;;;;;;;;;;5088983;28;5645;-65
2021/01/29 03:30:26;;;;;;;;;;;;;;;;;;5084138;28;5765;-65
2021/01/29 03:32:54;;;;;;;;;;;;;;;;;;5091275;28;3047;-65
2021/01/29 03:35:20;;;;;;;;;;;;;;;;;;5091173;28;3145;-65
2021/01/29 03:37:48;;;;;;;;;;;;;;;;;;5089799;28;4188;-65
2021/01/29 03:40:14;;;;;;;;;;;;;;;;;;5088563;28;5739;-65
2021/01/29 03:42:58;;;;;;;;;;;;;;;;;;5087980;28;5642;-65
2021/01/29 03:45:34;;;;;;;;;;;;;;;;;;5085533;28;5645;-65
2021/01/29 03:47:59;;;;;;;;;;;;;;;;;;5091779;28;5695;-65
2021/01/29 03:50:25;;;;;;;;;;;;;;;;;;5089801;28;2939;-65
2021/01/29 03:53:07;;;;;;;;;;;;;;;;;;5095339;28;5798;-65
2021/01/29 03:55:42;;;;;;;;;;;;;;;;;;5088235;28;5762;-65
2021/01/29 03:58:07;;;;;;;;;;;;;;;;;;5089615;28;5800;-66
2021/01/29 04:00:51;;;;;;;;;;;;;;;;;;5085841;28;5619;-64
2021/01/29 04:03:16;;;;;;;;;;;;;;;;;;5089210;28;5570;-64
2021/01/29 04:05:47;;;;;;;;;;;;;;;;;;5089986;28;1783;-65
2021/01/29 04:08:32;;;;;;;;;;;;;;;;;;5087879;28;5939;-64
2021/01/29 04:10:58;;;;;;;;;;;;;;;;;;5087448;28;3592;-65
2021/01/29 04:13:35;;;;;;;;;;;;;;;;;;5089239;28;5739;-65
2021/01/29 04:16:02;;;;;;;;;;;;;;;;;;5090092;28;3047;-64
2021/01/29 04:18:34;;;;;;;;;;;;;;;;;;5088767;28;5717;-64
2021/01/29 04:21:06;;;;;;;;;;;;;;;;;;5091811;28;5248;-65
2021/01/29 04:23:34;;;;;;;;;;;;;;;;;;5091858;28;3047;-64
2021/01/29 04:26:02;;;;;;;;;;;;;;;;;;5088113;28;5735;-64
2021/01/29 04:28:30;;;;;;;;;;;;;;;;;;5088470;28;5680;-63
2021/01/29 04:30:58;;;;;;;;;;;;;;;;;;5089072;28;5841;-64
2021/01/29 04:33:25;;;;;;;;;;;;;;;;;;5089205;28;5700;-65
2021/01/29 04:35:52;;;;;;;;;;;;;;;;;;5090042;28;4384;-64
2021/01/29 04:38:22;;;;;;;;;;;;;;;;;;5088020;28;6292;-64
2021/01/29 04:40:53;;;;;;;;;;;;;;;;;;5086913;28;5600;-65
2021/01/29 04:43:29;;;;;;;;;;;;;;;;;;5070579;28;5620;-65
2021/01/29 04:46:14;;;;;;;;;;;;;;;;;;5089052;28;5780;-64
2021/01/29 04:48:48;;;;;;;;;;;;;;;;;;5068894;28;5669;-65
2021/01/29 04:51:32;;;;;;;;;;;;;;;;;;5081464;28;4906;-65
2021/01/29 04:54:16;;;;;;;;;;;;;;;;;;5089079;28;5637;-65
2021/01/29 04:56:51;;;;;;;;;;;;;;;;;;5091769;28;1562;-65
2021/01/29 04:59:36;;;;;;;;;;;;;;;;;;5088892;28;6100;-65
2021/01/29 05:02:01;;;;;;;;;;;;;;;;;;5071580;28;4633;-64
2021/01/29 05:04:44;;;;;;;;;;;;;;;;;;5089214;28;5841;-65
2021/01/29 05:07:31;;;;;;;;;;;;;;;;;;5090170;28;5815;-65
2021/01/29 05:10:02;;;;;;;;;;;;;;;;;;5089211;28;5781;-64
2021/01/29 05:12:27;;;;;;;;;;;;;;;;;;5088425;28;6014;-64
2021/01/29 05:15:12;;;;;;;;;;;;;;;;;;5099709;28;2855;-65
2021/01/29 05:17:55;;;;;;;;;;;;;;;;;;5093266;28;2946;-65
2021/01/29 05:20:38;;;;;;;;;;;;;;;;;;5094517;28;3146;-64
2021/01/29 05:23:24;;;;;;;;;;;;;;;;;;5091340;28;5623;-65
2021/01/29 05:25:52;;;;;;;;;;;;;;;;;;5088171;28;5851;-65
2021/01/29 05:28:17;;;;;;;;;;;;;;;;;;5092920;28;5615;-65
2021/01/29 05:31:02;;;;;;;;;;;;;;;;;;5090027;28;4333;-65
2021/01/29 05:33:46;;;;;;;;;;;;;;;;;;5094013;28;5798;-65
2021/01/29 05:36:11;;;;;;;;;;;;;;;;;;5089585;28;6073;-65
2021/01/29 05:38:37;;;;;;;;;;;;;;;;;;5092789;28;2635;-65
2021/01/29 05:41:21;;;;;;;;;;;;;;;;;;5093258;28;5842;-65
2021/01/29 05:44:05;;;;;;;;;;;;;;;;;;5091479;28;5822;-65
2021/01/29 05:46:40;;;;;;;;;;;;;;;;;;5090919;28;5136;-65
2021/01/29 05:49:26;;;;;;;;;;;;;;;;;;5092445;28;5704;-65
2021/01/29 05:51:54;;;;;;;;;;;;;;;;;;5090273;28;5851;-65
2021/01/29 05:54:19;;;;;;;;;;;;;;;;;;5091101;28;5607;-65
2021/01/29 05:56:48;;;;;;;;;;;;;;;;;;5092407;28;2903;-64
2021/01/29 05:59:24;;;;;;;;;;;;;;;;;;5089149;28;5928;-65
2021/01/29 06:01:52;;;;;;;;;;;;;;;;;;5090425;28;4635;-64
2021/01/29 06:04:33;;;;;;;;;;;;;;;;;;5092532;28;4768;-64
2021/01/29 06:07:01;;;;;;;;;;;;;;;;;;5092144;28;5064;-63
2021/01/29 06:09:45;;;;;;;;;;;;;;;;;;5091365;28;5721;-64
2021/01/29 06:12:19;;;;;;;;;;;;;;;;;;5090453;28;5692;-63
2021/01/29 06:14:53;;;;;;;;;;;;;;;;;;5090467;28;3161;-63
2021/01/29 06:17:19;;;;;;;;;;;;;;;;;;5090118;28;5066;-66
2021/01/29 06:19:44;;;;;;;;;;;;;;;;;;5092557;28;5656;-66
2021/01/29 06:22:18;;;;;;;;;;;;;;;;;;5092617;28;5716;-66
2021/01/29 06:24:43;;;;;;;;;;;;;;;;;;5090053;28;5582;-67
2021/01/29 06:27:08;;;;;;;;;;;;;;;;;;5089090;28;5670;-66
2021/01/29 06:29:52;;;;;;;;;;;;;;;;;;5084711;28;3229;-66
2021/01/29 06:32:46;;;;;;;;;;;;;;;;;;5077753;28;5944;-66
2021/01/29 06:35:30;;;;;;;;;;;;;;;;;;4989898;28;5634;-66
2021/01/29 06:38:14;;;;;;;;;;;;;;;;;;4992200;28;5804;-65
2021/01/29 06:41:12;;;;;;;;;;;;;;;;;;5003853;28;5806;-66
2021/01/29 06:43:55;;;;;;;;;;;;;;;;;;4971533;28;5905;-66
2021/01/29 06:46:42;;;;;;;;;;;;;;;;;;4964828;28;3275;-65
2021/01/29 06:49:08;;;;;;;;;;;;;;;;;;4972404;28;2967;-65
2021/01/29 06:51:52;;;;;;;;;;;;;;;;;;4972881;28;6086;-65
2021/01/29 06:54:27;;;;;;;;;;;;;;;;;;4971899;28;5627;-65
2021/01/29 06:57:07;;;;;;;;;;;;;;;;;;4972401;28;1575;-65
2021/01/29 06:59:35;;;;;;;;;;;;;;;;;;4972842;28;3128;-65
2021/01/29 07:02:00;;;;;;;;;;;;;;;;;;4971934;28;5727;-65
2021/01/29 07:04:25;;;;;;;;;;;;;;;;;;4972236;28;5893;-65
2021/01/29 07:06:54;;;;;;;;;;;;;;;;;;4972307;28;5393;-65
2021/01/29 07:09:22;;;;;;;;;;;;;;;;;;4972394;28;5701;-65
2021/01/29 07:12:05;;;;;;;;;;;;;;;;;;5006289;28;3448;-75
2021/01/29 07:14:39;;;;;;;;;;;;;;;;;;5041519;28;2922;-65
2021/01/29 07:17:05;;;;;;;;;;;;;;;;;;5031965;28;6003;-66
2021/01/29 07:19:36;;;;;;;;;;;;;;;;;;5068024;28;5905;-65
2021/01/29 07:22:20;;;;;;;;;;;;;;;;;;5074301;28;3424;-65
2021/01/29 07:24:55;;;;;;;;;;;;;;;;;;5078157;28;5285;-66
2021/01/29 07:27:38;;;;;;;;;;;;;;;;;;5090928;28;5014;-66
2021/01/29 07:30:04;;;;;;;;;;;;;;;;;;5071915;28;5350;-66
2021/01/29 07:32:44;;;;;;;;;;;;;;;;;;5092535;28;3371;-66
2021/01/29 07:35:28;;;;;;;;;;;;;;;;;;5071991;28;5422;-66
2021/01/29 07:38:05;;;;;;;;;;;;;;;;;;5090003;28;5280;-64
2021/01/29 07:40:39;;;;;;;;;;;;;;;;;;5088393;28;4987;-64
2021/01/29 07:43:20;;;;;;;;;;;;;;;;;;5084188;28;5743;-66
2021/01/29 07:45:51;;;;;;;;;;;;;;;;;;5078780;28;4995;-65
2021/01/29 07:48:25;;;;;;;;;;;;;;;;;;5090143;28;5151;-65
2021/01/29 07:51:09;;;;;;;;;;;;;;;;;;5087477;28;2937;-65
2021/01/29 07:53:53;;;;;;;;;;;;;;;;;;5090145;28;2982;-64
2021/01/29 07:56:37;;;;;;;;;;;;;;;;;;5091026;28;4979;-63
2021/01/29 07:59:15;;;;;;;;;;;;;;;;;;5088453;28;4141;-64
2021/01/29 08:01:40;;;;;;;;;;;;;;;;;;5088696;28;5577;-66
2021/01/29 08:04:24;;;;;;;;;;;;;;;;;;5087473;22;3712;-82
2021/01/29 08:07:03;;;;;;;;;;;;;;;;;;5075370;28;5402;-83
2021/01/29 08:09:35;;;;;;;;;;;;;;;;;;5073752;28;4568;-81
2021/01/29 08:12:02;;;;;;;;;;;;;;;;;;5077242;28;4983;-83
2021/01/29 08:14:46;;;;;;;;;;;;;;;;;;5077447;28;2450;-82
2021/01/29 08:17:11;;;;;;;;;;;;;;;;;;5077700;28;4943;-83
2021/01/29 08:19:48;;;;;;;;;;;;;;;;;;5089859;28;4728;-82
2021/01/29 08:22:32;;;;;;;;;;;;;;;;;;5092904;28;1604;-84
2021/01/29 08:25:17;;;;;;;;;;;;;;;;;;5092089;28;2478;-83
2021/01/29 08:27:42;;;;;;;;;;;;;;;;;;5089113;28;875;-84
2021/01/29 08:30:15;;;;;;;;;;;;;;;;;;5081792;28;5102;-83
2021/01/29 08:32:49;;;;;;;;;;;;;;;;;;5094090;28;1009;-84
2021/01/29 08:35:21;;;;;;;;;;;;;;;;;;5079243;28;4973;-84
2021/01/29 08:38:05;;;;;;;;;;;;;;;;;;5090745;28;4433;-84
2021/01/29 08:40:37;;;;;;;;;;;;;;;;;;5075991;28;991;-84
2021/01/29 08:43:20;;;;;;;;;;;;;;;;;;5075930;28;848;-83
2021/01/29 08:45:58;;;;;;;;;;;;;;;;;;5089349;28;1624;-85
2021/01/29 08:48:34;;;;;;;;;;;;;;;;;;5096248;28;1088;-84
2021/01/29 08:51:15;;;;;;;;;;;;;;;;;;5096549;28;3561;-84
2021/01/29 08:53:40;;;;;;;;;;;;;;;;;;5087328;28;2629;-84
2021/01/29 08:56:06;;;;;;;;;;;;;;;;;;5077873;28;2483;-84
2021/01/29 08:58:49;;;;;;;;;;;;;;;;;;5080790;28;5728;-84
2021/01/29 09:01:21;;;;;;;;;;;;;;;;;;5079593;28;999;-84
2021/01/29 09:03:53;;;;;;;;;;;;;;;;;;5098043;28;2717;-84
2021/01/29 16:03:45;;;;;;;;;;;;;;;;;;5024730;26;1784;-83
2021/01/29 16:06:11;;;;;;;;;;;;;;;;;;5038491;28;898;-83
2021/01/29 16:08:38;;;;;;;;;;;;;;;;;;5038205;28;1137;-83
2021/01/29 16:11:14;;;;;;;;;;;;;;;;;;5038836;28;1890;-83
2021/01/29 16:13:41;;;;;;;;;;;;;;;;;;5007899;28;1225;-83
2021/01/29 16:16:14;;;;;;;;;;;;;;;;;;5018698;28;876;-83
2021/01/29 16:18:46;;;;;;;;;;;;;;;;;;5023838;28;1114;-84
2021/01/29 16:21:12;;;;;;;;;;;;;;;;;;5037779;28;1042;-85
2021/01/29 16:23:42;;;;;;;;;;;;;;;;;;5038141;28;1152;-83
2021/01/29 16:26:18;;;;;;;;;;;;;;;;;;5038667;28;1008;-83
2021/01/29 16:28:46;;;;;;;;;;;;;;;;;;5037625;28;1081;-83
2021/01/29 16:31:26;;;;;;;;;;;;;;;;;;5038031;28;1948;-83
2021/01/29 16:33:52;;;;;;;;;;;;;;;;;;5020634;28;2537;-85
2021/01/29 16:36:19;;;;;;;;;;;;;;;;;;5022830;28;4797;-83
2021/01/29 16:38:46;;;;;;;;;;;;;;;;;;5017439;28;1026;-85
2021/01/29 16:41:14;;;;;;;;;;;;;;;;;;5018162;28;1180;-82
2021/01/29 16:43:39;;;;;;;;;;;;;;;;;;5018107;28;1023;-84
2021/01/29 16:46:24;;;;;;;;;;;;;;;;;;5018007;28;1093;-85
2021/01/29 16:48:49;;;;;;;;;;;;;;;;;;5037251;28;3607;-84
2021/01/29 16:51:18;;;;;;;;;;;;;;;;;;5038191;28;1875;-85
2021/01/29 16:53:44;;;;;;;;;;;;;;;;;;5037532;28;1022;-85
2021/01/29 16:56:12;;;;;;;;;;;;;;;;;;5037803;28;1019;-85
2021/01/29 16:58:42;;;;;;;;;;;;;;;;;;5024090;28;1019;-85
2021/01/29 17:01:12;;;;;;;;;;;;;;;;;;5017243;28;991;-85
2021/01/29 17:03:39;;;;;;;;;;;;;;;;;;5017808;28;1215;-85
2021/01/29 17:06:25;;;;;;;;;;;;;;;;;;5017590;28;987;-85
2021/01/29 17:08:51;;;;;;;;;;;;;;;;;;5028052;28;1139;-85
2021/01/29 17:11:22;;;;;;;;;;;;;;;;;;5024754;28;1910;-85
2021/01/29 17:13:49;;;;;;;;;;;;;;;;;;5040058;28;1026;-84
2021/01/29 21:42:20;;;;;;;;;;;;;;;;;;5301217;23;3993;-84
2021/01/29 22:15:47;;;;;;;;;;;;;;;;;;5392198;23;2067;-86
2021/01/29 22:18:12;;;;;;;;;;;;;;;;;;5021175;28;868;-85
2021/01/29 22:20:38;;;;;;;;;;;;;;;;;;5021142;28;999;-85
2021/01/29 22:23:03;;;;;;;;;;;;;;;;;;5021060;28;1035;-84
2021/01/29 22:25:28;;;;;;;;;;;;;;;;;;5009752;28;1112;-85
2021/01/29 22:27:58;;;;;;;;;;;;;;;;;;5020343;28;1119;-85
2021/01/29 22:30:25;;;;;;;;;;;;;;;;;;5020464;28;1948;-85
2021/01/29 22:32:50;;;;;;;;;;;;;;;;;;5012049;28;1093;-85
2021/01/29 22:35:16;;;;;;;;;;;;;;;;;;5018383;28;1325;-85
2021/01/29 22:37:42;;;;;;;;;;;;;;;;;;5019504;28;1038;-85
